Time;durP1;ratioP1;P1;durP2;ratioP2;P2;SDS_P1;SDS_P2;PMS_P1;PMS_P2;Temp;Humidity;BMP_temperature;BMP_pressure;BME280_temperature;BME280_humidity;BME280_pressure;Samples;Min_cycle;Max_cycle;Signal;HPM_P1;HPM_P2
2023/02/04 00:01:05;;;;;;;36.22;6.10;;;6.70;99.90;;;;;;6095247;23;20015;-72
2023/02/04 00:03:31;;;;;;;32.90;6.10;;;6.70;99.90;;;;;;6095056;23;20022;-72
2023/02/04 00:05:57;;;;;;;37.28;5.88;;;6.70;99.90;;;;;;6071156;23;20026;-73
2023/02/04 00:08:23;;;;;;;50.03;7.13;;;6.70;99.90;;;;;;6071185;23;20456;-73
2023/02/04 00:10:48;;;;;;;42.08;6.10;;;6.80;99.90;;;;;;6117774;23;20027;-72
2023/02/04 00:13:14;;;;;;;39.53;7.88;;;6.70;99.90;;;;;;6184677;23;20015;-72
2023/02/04 00:15:39;;;;;;;32.67;5.72;;;6.80;99.90;;;;;;6186181;23;20389;-73
2023/02/04 00:18:06;;;;;;;38.85;6.60;;;6.80;99.90;;;;;;6159915;23;20023;-73
2023/02/04 00:20:32;;;;;;;33.38;6.35;;;6.70;99.90;;;;;;6184631;23;20013;-73
2023/02/04 00:22:57;;;;;;;47.05;7.53;;;6.70;99.90;;;;;;6186485;23;20334;-73
2023/02/04 00:25:23;;;;;;;48.15;8.05;;;6.70;99.90;;;;;;6186350;23;20053;-73
2023/02/04 00:27:49;;;;;;;45.53;7.20;;;6.70;99.90;;;;;;6186047;23;20013;-73
2023/02/04 00:30:14;;;;;;;45.05;7.97;;;6.80;99.90;;;;;;6184694;23;20393;-73
2023/02/04 00:32:40;;;;;;;39.70;5.93;;;6.70;99.90;;;;;;6186112;23;20013;-73
2023/02/04 00:35:06;;;;;;;39.15;5.75;;;6.80;99.90;;;;;;6184551;23;20095;-73
2023/02/04 00:37:32;;;;;;;46.88;8.15;;;6.80;99.90;;;;;;6186444;23;20018;-73
2023/02/04 00:39:58;;;;;;;38.47;6.13;;;6.80;99.90;;;;;;6186437;23;20073;-73
2023/02/04 00:42:23;;;;;;;41.40;8.10;;;6.70;99.90;;;;;;6186275;23;20013;-72
2023/02/04 00:44:49;;;;;;;39.80;7.60;;;6.70;99.90;;;;;;6186378;23;20009;-73
2023/02/04 00:47:14;;;;;;;42.85;7.15;;;6.70;99.90;;;;;;6186013;23;20104;-73
2023/02/04 00:49:40;;;;;;;39.97;7.22;;;6.70;99.90;;;;;;6186343;23;20006;-72
2023/02/04 00:52:06;;;;;;;44.33;7.13;;;6.70;99.90;;;;;;6184445;23;20028;-73
2023/02/04 00:54:32;;;;;;;39.17;7.32;;;6.60;99.90;;;;;;6186469;23;20339;-72
2023/02/04 00:56:57;;;;;;;37.45;7.50;;;6.60;99.90;;;;;;6186949;23;20385;-73
2023/02/04 00:59:23;;;;;;;38.33;6.78;;;6.50;99.90;;;;;;6184458;23;20088;-72
2023/02/04 01:01:50;;;;;;;42.20;6.20;;;6.60;99.90;;;;;;6186264;23;20013;-72
2023/02/04 01:04:16;;;;;;;34.88;7.05;;;6.60;99.90;;;;;;6186344;23;20016;-72
2023/02/04 01:06:41;;;;;;;36.72;6.90;;;6.60;99.90;;;;;;6186285;23;20013;-72
2023/02/04 01:09:07;;;;;;;34.92;5.95;;;6.60;99.90;;;;;;6186421;23;20457;-72
2023/02/04 01:11:33;;;;;;;35.67;6.03;;;6.70;99.90;;;;;;6184435;23;20009;-73
2023/02/04 01:13:59;;;;;;;41.13;6.95;;;6.60;99.90;;;;;;6184398;23;20013;-73
2023/02/04 01:16:25;;;;;;;35.60;6.05;;;6.70;99.90;;;;;;6187920;23;20024;-73
2023/02/04 01:18:52;;;;;;;32.08;6.00;;;6.70;99.90;;;;;;6186205;23;20040;-73
2023/02/04 01:21:17;;;;;;;37.80;5.93;;;6.70;99.90;;;;;;6187988;23;20051;-72
2023/02/04 01:23:43;;;;;;;37.75;6.00;;;6.60;99.90;;;;;;6188088;23;20014;-72
2023/02/04 01:26:09;;;;;;;33.80;5.78;;;6.60;99.90;;;;;;6188005;23;20373;-72
2023/02/04 01:28:34;;;;;;;36.70;6.97;;;6.60;99.90;;;;;;6187424;23;20347;-72
2023/02/04 01:31:00;;;;;;;40.90;5.05;;;6.70;99.90;;;;;;6186103;23;20052;-72
2023/02/04 01:33:25;;;;;;;40.88;6.28;;;6.60;99.90;;;;;;6186072;23;20017;-73
2023/02/04 01:35:51;;;;;;;32.55;5.53;;;6.60;99.90;;;;;;6161239;23;20063;-72
2023/02/04 01:38:17;;;;;;;41.13;5.70;;;6.60;99.90;;;;;;6187934;23;20055;-73
2023/02/04 01:40:43;;;;;;;38.33;5.95;;;6.70;99.90;;;;;;6187982;23;20016;-73
2023/02/04 01:43:09;;;;;;;46.63;7.07;;;6.80;99.90;;;;;;6187660;23;20016;-72
2023/02/04 01:45:35;;;;;;;33.13;5.78;;;6.80;99.90;;;;;;6186023;23;20084;-73
2023/02/04 01:48:03;;;;;;;41.10;6.88;;;6.70;99.90;;;;;;6186043;23;20055;-72
2023/02/04 01:50:29;;;;;;;40.47;7.43;;;6.70;99.90;;;;;;6186066;23;20051;-72
2023/02/04 01:52:55;;;;;;;39.30;6.35;;;6.70;99.90;;;;;;6187849;23;20009;-73
2023/02/04 01:55:25;;;;;;;33.67;5.75;;;6.60;99.90;;;;;;6187962;23;20075;-72
2023/02/04 01:57:52;;;;;;;40.38;6.20;;;6.60;99.90;;;;;;6187860;23;20031;-72
2023/02/04 02:00:23;;;;;;;41.63;6.40;;;6.70;99.90;;;;;;6185984;23;20017;-72
2023/02/04 02:02:51;;;;;;;36.70;6.20;;;6.70;99.90;;;;;;6187453;23;20073;-72
2023/02/04 02:05:42;;;;;;;42.72;5.82;;;6.80;99.90;;;;;;6186010;23;20048;-72
2023/02/04 02:08:09;;;;;;;35.35;5.55;;;6.80;99.90;;;;;;6179505;23;20017;-72
2023/02/04 02:10:36;;;;;;;51.17;7.97;;;6.70;99.90;;;;;;6187873;23;20013;-72
2023/02/04 02:13:04;;;;;;;39.97;5.47;;;6.70;99.90;;;;;;6187906;23;20009;-72
2023/02/04 02:15:29;;;;;;;45.35;6.90;;;6.70;99.90;;;;;;6187355;23;20020;-72
2023/02/04 02:17:55;;;;;;;35.75;5.57;;;6.80;99.90;;;;;;6185717;23;20013;-72
2023/02/04 02:20:25;;;;;;;43.17;7.20;;;6.80;99.90;;;;;;6185678;23;20446;-73
2023/02/04 02:23:22;;;;;;;37.60;6.03;;;6.80;99.90;;;;;;6186060;23;20013;-72
2023/02/04 02:25:48;;;;;;;38.78;6.03;;;6.80;99.90;;;;;;6186780;23;20039;-73
2023/02/04 02:28:18;;;;;;;39.90;7.28;;;6.80;99.90;;;;;;6186679;23;20085;-73
2023/02/04 02:30:44;;;;;;;36.60;6.28;;;6.70;99.90;;;;;;6187522;23;20023;-72
2023/02/04 02:33:13;;;;;;;38.45;6.43;;;6.70;99.90;;;;;;6187426;23;20009;-72
2023/02/04 02:35:42;;;;;;;37.15;5.38;;;6.70;99.90;;;;;;6187378;23;20009;-72
2023/02/04 02:38:09;;;;;;;35.67;6.00;;;6.70;99.90;;;;;;6187346;23;20013;-73
2023/02/04 02:40:35;;;;;;;41.13;7.20;;;6.80;99.90;;;;;;6185525;23;20094;-72
2023/02/04 02:43:01;;;;;;;36.72;5.20;;;6.70;99.90;;;;;;6187360;23;20299;-73
2023/02/04 02:45:29;;;;;;;43.67;5.63;;;6.70;99.90;;;;;;6186911;23;20039;-73
2023/02/04 02:47:58;;;;;;;34.28;5.20;;;6.80;99.90;;;;;;6185412;23;20087;-72
2023/02/04 02:50:27;;;;;;;39.72;6.32;;;6.80;99.90;;;;;;6186797;23;20453;-73
2023/02/04 02:52:54;;;;;;;41.33;7.20;;;6.70;99.90;;;;;;6187371;23;20084;-72
2023/02/04 02:55:23;;;;;;;33.28;5.50;;;6.70;99.90;;;;;;6187040;23;20244;-73
2023/02/04 02:57:50;;;;;;;44.65;7.03;;;6.80;99.90;;;;;;6187136;23;20009;-73
2023/02/04 03:00:22;;;;;;;35.67;5.10;;;6.80;99.90;;;;;;6187154;23;20044;-72
2023/02/04 03:03:09;;;;;;;43.95;6.55;;;6.80;99.90;;;;;;6187014;23;20020;-72
2023/02/04 03:05:40;;;;;;;37.85;6.68;;;6.80;99.90;;;;;;6187857;23;20060;-72
2023/02/04 03:08:06;;;;;;;36.90;5.50;;;6.80;99.90;;;;;;6186618;23;20071;-72
2023/02/04 03:10:32;;;;;;;35.22;6.47;;;6.90;99.90;;;;;;6187167;23;20024;-73
2023/02/04 03:12:59;;;;;;;33.03;5.38;;;6.80;99.90;;;;;;6187026;23;20009;-72
2023/02/04 03:15:25;;;;;;;31.00;5.70;;;6.80;99.90;;;;;;6185537;23;20009;-73
2023/02/04 03:17:55;;;;;;;46.33;7.45;;;6.70;99.90;;;;;;6186947;23;20009;-72
2023/02/04 03:20:25;;;;;;;43.28;6.18;;;6.80;99.90;;;;;;6187639;23;20009;-72
2023/02/04 03:22:51;;;;;;;;;;;6.70;99.90;;;;;;6185498;23;20017;-72
2023/02/04 03:25:16;;;;;;;41.00;5.63;;;6.80;99.90;;;;;;6187076;23;19938;-72
2023/02/04 03:27:42;;;;;;;45.58;7.95;;;6.80;99.90;;;;;;6186359;23;20024;-73
2023/02/04 03:30:09;;;;;;;48.75;9.30;;;6.80;99.90;;;;;;6186591;23;20091;-73
2023/02/04 03:32:34;;;;;;;53.63;7.65;;;6.80;99.90;;;;;;6186450;23;20024;-72
2023/02/04 03:35:00;;;;;;;36.05;7.13;;;6.90;99.90;;;;;;6186868;23;20013;-72
2023/02/04 03:37:25;;;;;;;44.53;5.75;;;6.90;99.90;;;;;;6186802;23;20013;-72
2023/02/04 03:39:51;;;;;;;49.05;8.43;;;7.00;99.90;;;;;;6184717;23;20023;-72
2023/02/04 03:42:17;;;;;;;31.30;5.75;;;7.00;99.90;;;;;;6186621;23;20009;-72
2023/02/04 03:44:43;;;;;;;44.63;5.90;;;6.90;99.90;;;;;;6186716;23;20334;-72
2023/02/04 03:47:09;;;;;;;45.83;6.43;;;6.90;99.90;;;;;;6184886;23;20020;-72
2023/02/04 03:49:35;;;;;;;37.70;5.93;;;6.90;99.90;;;;;;6184939;23;20020;-72
2023/02/04 03:52:02;;;;;;;39.53;6.57;;;6.90;99.90;;;;;;6186662;23;20009;-72
2023/02/04 03:54:27;;;;;;;40.80;7.60;;;6.80;99.90;;;;;;6187498;23;20426;-72
2023/02/04 03:56:53;;;;;;;38.55;7.32;;;6.90;99.90;;;;;;6186673;23;20016;-72
2023/02/04 03:59:19;;;;;;;46.22;7.45;;;6.80;99.90;;;;;;6186687;23;20092;-72
2023/02/04 04:01:44;;;;;;;35.05;7.00;;;6.90;99.90;;;;;;6184786;23;20009;-72
2023/02/04 04:04:10;;;;;;;40.30;6.63;;;6.90;99.90;;;;;;6186559;23;20016;-73
2023/02/04 04:06:36;;;;;;;31.63;5.78;;;6.80;99.90;;;;;;6184724;23;20400;-72
2023/02/04 04:09:01;;;;;;;48.25;6.47;;;6.90;99.90;;;;;;6186765;23;20016;-72
2023/02/04 04:11:27;;;;;;;44.72;6.03;;;6.80;99.90;;;;;;6184692;23;20021;-72
2023/02/04 04:13:53;;;;;;;41.30;6.70;;;6.80;99.90;;;;;;6184763;23;20021;-73
2023/02/04 04:16:19;;;;;;;43.10;7.32;;;6.90;99.90;;;;;;6184664;23;20020;-73
2023/02/04 04:18:45;;;;;;;34.50;5.00;;;6.80;99.90;;;;;;6159830;23;20437;-72
2023/02/04 04:21:11;;;;;;;39.10;6.65;;;6.80;99.90;;;;;;6184595;23;20044;-72
2023/02/04 04:23:36;;;;;;;40.88;6.28;;;6.80;99.90;;;;;;6186597;23;20013;-72
2023/02/04 04:26:02;;;;;;;38.35;5.60;;;6.80;99.90;;;;;;6186595;23;20437;-73
2023/02/04 04:28:28;;;;;;;44.92;6.15;;;6.90;99.90;;;;;;6185999;23;20530;-73
2023/02/04 04:30:53;;;;;;;37.40;6.55;;;6.70;99.90;;;;;;6186161;23;20334;-72
2023/02/04 04:33:19;;;;;;;34.00;6.05;;;6.70;99.90;;;;;;6186075;23;20013;-72
2023/02/04 04:35:45;;;;;;;43.05;6.93;;;6.80;99.90;;;;;;6186434;23;20024;-73
2023/02/04 04:38:10;;;;;;;37.78;6.00;;;6.70;99.90;;;;;;6186396;23;20012;-72
2023/02/04 04:40:36;;;;;;;33.33;5.53;;;6.70;99.90;;;;;;6184552;23;20374;-73
2023/02/04 04:43:02;;;;;;;38.70;6.97;;;6.60;99.90;;;;;;6184593;23;20013;-72
2023/02/04 04:45:27;;;;;;;38.42;6.13;;;6.70;99.90;;;;;;6186329;23;20009;-72
2023/02/04 04:47:53;;;;;;;39.25;5.78;;;6.70;99.90;;;;;;6184487;23;20092;-73
2023/02/04 04:50:19;;;;;;;38.22;5.35;;;6.80;99.90;;;;;;6187053;23;20009;-72
2023/02/04 04:52:44;;;;;;;43.85;6.70;;;6.80;99.90;;;;;;6188263;23;20017;-73
2023/02/04 04:55:10;;;;;;;39.83;6.13;;;6.60;99.90;;;;;;6188426;23;20013;-72
2023/02/04 04:57:36;;;;;;;41.35;6.15;;;6.60;99.90;;;;;;6188241;23;20017;-73
2023/02/04 05:00:02;;;;;;;38.70;5.68;;;6.60;99.90;;;;;;6188258;23;20013;-72
2023/02/04 05:02:27;;;;;;;31.63;5.63;;;6.70;99.90;;;;;;6188116;23;20013;-72
2023/02/04 05:04:53;;;;;;;43.50;6.65;;;6.60;99.90;;;;;;6188382;23;20063;-72
2023/02/04 05:07:22;;;;;;;44.85;5.90;;;6.60;99.90;;;;;;6188328;23;20102;-73
2023/02/04 05:09:48;;;;;;;33.33;6.72;;;6.60;99.90;;;;;;6187021;23;20013;-72
2023/02/04 05:12:13;;;;;;;33.97;5.85;;;6.50;99.90;;;;;;6188211;23;20339;-73
2023/02/04 05:14:39;;;;;;;27.52;5.53;;;6.60;99.90;;;;;;6189181;23;20009;-73
2023/02/04 05:17:04;;;;;;;32.70;5.88;;;6.60;99.90;;;;;;6186445;23;20392;-73
2023/02/04 05:19:30;;;;;;;32.90;6.82;;;6.40;99.90;;;;;;6187414;23;20024;-73
2023/02/04 05:22:00;;;;;;;25.63;5.07;;;6.40;99.90;;;;;;6187787;23;20025;-72
2023/02/04 05:24:26;;;;;;;30.20;6.65;;;6.40;99.90;;;;;;6188197;23;20090;-72
2023/02/04 05:26:52;;;;;;;30.88;5.45;;;6.20;99.90;;;;;;6188417;23;20045;-72
2023/02/04 05:29:18;;;;;;;39.53;5.60;;;6.30;99.90;;;;;;6188292;23;20382;-73
2023/02/04 05:31:43;;;;;;;35.85;5.93;;;6.10;99.90;;;;;;6186341;23;20402;-72
2023/02/04 05:34:09;;;;;;;37.90;6.05;;;6.10;99.90;;;;;;6188512;23;20430;-72
2023/02/04 05:36:35;;;;;;;27.73;4.30;;;6.20;99.90;;;;;;6188088;23;20453;-72
2023/02/04 05:39:00;;;;;;;28.90;4.95;;;6.10;99.90;;;;;;6188626;23;20024;-73
2023/02/04 05:41:26;;;;;;;32.22;5.20;;;6.10;99.90;;;;;;6188024;23;20021;-72
2023/02/04 05:43:51;;;;;;;26.02;4.50;;;6.00;99.90;;;;;;6188010;23;20021;-73
2023/02/04 05:46:17;;;;;;;28.15;5.70;;;6.00;99.90;;;;;;6186283;23;20482;-72
2023/02/04 05:48:43;;;;;;;33.05;4.63;;;5.90;99.90;;;;;;6187003;23;20013;-72
2023/02/04 05:51:08;;;;;;;27.05;4.45;;;5.90;99.90;;;;;;6187898;23;20017;-73
2023/02/04 05:53:34;;;;;;;25.90;4.57;;;6.00;99.90;;;;;;6187819;23;20044;-72
2023/02/04 05:55:59;;;;;;;26.88;4.35;;;6.00;99.90;;;;;;6188115;23;20017;-72
2023/02/04 05:58:32;;;;;;;20.73;3.90;;;5.90;99.90;;;;;;6187961;23;20013;-72
2023/02/04 06:00:59;;;;;;;25.85;4.43;;;5.90;99.90;;;;;;6160903;23;20028;-72
2023/02/04 06:03:24;;;;;;;28.88;5.43;;;5.90;99.90;;;;;;6185732;23;20017;-72
2023/02/04 06:05:50;;;;;;;28.98;3.92;;;5.90;99.90;;;;;;6187668;23;20509;-72
2023/02/04 06:08:15;;;;;;;36.15;5.20;;;5.80;99.90;;;;;;6185910;23;20013;-72
2023/02/04 06:10:41;;;;;;;24.52;4.15;;;5.90;99.90;;;;;;6187800;23;20076;-73
2023/02/04 06:13:07;;;;;;;25.83;4.22;;;5.80;99.90;;;;;;6187604;23;20388;-72
2023/02/04 06:15:32;;;;;;;25.77;4.03;;;5.80;99.90;;;;;;6187610;23;20013;-73
2023/02/04 06:17:58;;;;;;;22.60;4.35;;;5.80;99.90;;;;;;6185720;23;20028;-72
2023/02/04 06:20:24;;;;;;;22.98;3.55;;;5.80;99.90;;;;;;6185611;23;20049;-72
2023/02/04 06:22:50;;;;;;;27.17;5.72;;;5.80;99.90;;;;;;6185618;23;20021;-72
2023/02/04 06:25:16;;;;;;;39.03;8.75;;;5.80;99.90;;;;;;6187509;23;20025;-72
2023/02/04 06:27:42;;;;;;;29.35;5.40;;;5.80;99.90;;;;;;6187018;23;20028;-72
2023/02/04 06:30:09;;;;;;;24.10;4.45;;;5.80;99.90;;;;;;6187421;23;20021;-72
2023/02/04 06:32:35;;;;;;;24.73;4.18;;;5.80;99.90;;;;;;6187120;23;20020;-73
2023/02/04 06:35:01;;;;;;;22.83;3.63;;;5.80;99.90;;;;;;6185642;23;20017;-72
2023/02/04 06:37:26;;;;;;;18.73;3.50;;;5.70;99.90;;;;;;6187470;23;20016;-73
2023/02/04 06:39:53;;;;;;;14.75;3.65;;;5.70;99.90;;;;;;6185660;23;20017;-72
2023/02/04 06:42:19;;;;;;;20.40;3.38;;;5.70;99.90;;;;;;6185446;23;20013;-72
2023/02/04 06:44:45;;;;;;;18.38;4.03;;;5.60;99.90;;;;;;6186902;23;20020;-72
2023/02/04 06:47:11;;;;;;;16.95;3.35;;;5.60;99.90;;;;;;6187196;23;20009;-72
2023/02/04 06:49:36;;;;;;;16.80;3.38;;;5.60;99.90;;;;;;6185316;23;20447;-72
2023/02/04 06:52:02;;;;;;;16.65;2.90;;;5.50;99.90;;;;;;6186821;23;20013;-72
2023/02/04 06:54:28;;;;;;;22.90;3.42;;;5.60;99.90;;;;;;6185302;23;20087;-73
2023/02/04 06:56:53;;;;;;;20.58;3.85;;;5.50;99.90;;;;;;6185348;23;20315;-73
2023/02/04 06:59:19;;;;;;;18.90;3.22;;;5.60;99.90;;;;;;6187212;23;20017;-72
2023/02/04 07:01:45;;;;;;;22.95;3.13;;;5.50;99.90;;;;;;6186970;23;20010;-73
2023/02/04 07:04:10;;;;;;;12.73;2.85;;;5.50;99.90;;;;;;6187156;23;20009;-72
2023/02/04 07:06:36;;;;;;;13.75;3.50;;;5.40;99.90;;;;;;6185291;23;20017;-73
2023/02/04 07:09:02;;;;;;;14.52;3.13;;;5.50;99.90;;;;;;6187145;23;20013;-73
2023/02/04 07:11:27;;;;;;;19.42;4.43;;;5.40;99.90;;;;;;6187093;23;20013;-73
2023/02/04 07:13:53;;;;;;;17.25;3.35;;;5.50;99.90;;;;;;6186612;23;20040;-73
2023/02/04 07:16:19;;;;;;;21.30;4.32;;;5.50;99.90;;;;;;6185220;23;20024;-72
2023/02/04 07:18:44;;;;;;;21.13;2.78;;;5.60;99.90;;;;;;6187026;23;20009;-72
2023/02/04 07:21:10;;;;;;;20.95;3.55;;;5.50;99.90;;;;;;6186971;23;20084;-72
2023/02/04 07:23:35;;;;;;;19.20;3.80;;;5.60;99.90;;;;;;6187026;23;20017;-72
2023/02/04 07:26:01;;;;;;;20.45;3.92;;;5.60;99.90;;;;;;6185221;23;20048;-73
2023/02/04 07:28:27;;;;;;;19.23;3.47;;;5.60;99.90;;;;;;6184948;23;20013;-73
2023/02/04 07:30:52;;;;;;;17.20;3.28;;;5.60;99.90;;;;;;6185028;23;20071;-73
2023/02/04 07:33:18;;;;;;;18.42;4.00;;;5.50;99.90;;;;;;6185153;23;20388;-73
2023/02/04 07:35:44;;;;;;;26.65;5.10;;;5.60;99.90;;;;;;6186401;23;20036;-73
2023/02/04 07:38:09;;;;;;;21.83;4.57;;;5.50;99.90;;;;;;6186841;23;20040;-73
2023/02/04 07:40:35;;;;;;;20.92;5.57;;;5.50;99.90;;;;;;6185054;23;20013;-72
2023/02/04 07:43:01;;;;;;;23.15;7.28;;;5.70;99.90;;;;;;6184807;23;20020;-73
2023/02/04 07:45:26;;;;;;;19.17;4.07;;;5.70;99.90;;;;;;6186727;23;20009;-71
2023/02/04 07:47:52;;;;;;;19.33;3.65;;;5.70;99.90;;;;;;6185332;23;20005;-73
2023/02/04 07:50:17;;;;;;;17.90;4.10;;;5.60;99.90;;;;;;6186686;23;20009;-70
2023/02/04 07:52:43;;;;;;;14.20;3.60;;;5.70;99.90;;;;;;6184791;23;20452;-71
2023/02/04 07:55:09;;;;;;;15.60;3.85;;;5.60;99.90;;;;;;6185068;23;20024;-73
2023/02/04 07:57:35;;;;;;;17.50;3.17;;;5.70;99.90;;;;;;6186681;23;20013;-72
2023/02/04 08:00:00;;;;;;;14.27;3.42;;;5.60;99.90;;;;;;6184707;23;20017;-71
2023/02/04 08:02:26;;;;;;;16.88;3.63;;;5.80;99.90;;;;;;6184656;23;20443;-72
2023/02/04 08:04:52;;;;;;;11.93;3.72;;;5.70;99.90;;;;;;6184903;23;20324;-71
2023/02/04 08:07:18;;;;;;;18.20;3.70;;;5.80;99.90;;;;;;6184830;23;20020;-71
2023/02/04 08:09:43;;;;;;;13.80;2.60;;;5.80;99.90;;;;;;6186767;23;20458;-73
2023/02/04 08:12:09;;;;;;;16.90;3.42;;;5.70;99.90;;;;;;6184958;23;20021;-73
2023/02/04 08:14:36;;;;;;;12.85;2.80;;;5.70;99.90;;;;;;6186529;23;20009;-72
2023/02/04 08:17:01;;;;;;;12.85;2.75;;;5.80;99.90;;;;;;6184699;23;20012;-73
2023/02/04 08:19:27;;;;;;;16.45;3.65;;;5.80;99.90;;;;;;6184710;23;20316;-73
2023/02/04 08:21:53;;;;;;;11.35;3.05;;;5.80;99.90;;;;;;6184630;23;20324;-76
2023/02/04 08:24:18;;;;;;;13.45;3.35;;;5.90;99.90;;;;;;6184342;23;20502;-73
2023/02/04 08:26:44;;;;;;;12.95;3.42;;;5.90;99.90;;;;;;6159836;23;20013;-74
2023/02/04 08:29:10;;;;;;;15.60;4.28;;;6.00;99.90;;;;;;6184999;23;20097;-74
2023/02/04 08:31:36;;;;;;;14.10;3.30;;;6.00;99.90;;;;;;6160802;23;20052;-71
2023/02/04 08:34:03;;;;;;;13.23;2.92;;;5.90;99.90;;;;;;6186415;23;20019;-72
2023/02/04 08:36:29;;;;;;;12.10;2.95;;;5.90;99.90;;;;;;6184603;23;20067;-73
2023/02/04 08:38:55;;;;;;;15.70;3.63;;;5.90;99.90;;;;;;6184504;23;20005;-72
2023/02/04 08:41:21;;;;;;;13.60;3.05;;;6.00;99.90;;;;;;6186511;23;20016;-73
2023/02/04 08:43:46;;;;;;;13.70;5.22;;;6.00;99.90;;;;;;6184605;23;20045;-71
2023/02/04 08:46:12;;;;;;;17.38;5.10;;;6.00;99.90;;;;;;6187448;23;20012;-73
2023/02/04 08:48:37;;;;;;;12.35;4.07;;;6.10;99.90;;;;;;6186243;23;20140;-71
2023/02/04 08:51:03;;;;;;;13.18;3.17;;;6.10;99.90;;;;;;6186588;23;20136;-71
2023/02/04 08:53:29;;;;;;;14.38;2.65;;;6.20;99.90;;;;;;6184729;23;20398;-70
2023/02/04 08:55:54;;;;;;;10.18;2.38;;;6.10;99.90;;;;;;6184898;23;20028;-70
2023/02/04 08:58:20;;;;;;;13.77;3.05;;;6.20;99.90;;;;;;6186086;23;20019;-70
2023/02/04 09:00:47;;;;;;;14.73;3.78;;;6.20;99.90;;;;;;6159797;23;20024;-70
2023/02/04 09:03:12;;;;;;;11.50;2.67;;;6.20;99.90;;;;;;6186020;23;20047;-71
2023/02/04 09:05:38;;;;;;;10.57;3.20;;;6.20;99.90;;;;;;6184487;23;20013;-71
2023/02/04 09:08:04;;;;;;;11.85;3.38;;;6.20;99.90;;;;;;6184427;23;20032;-71
2023/02/04 09:10:29;;;;;;;9.60;2.70;;;6.30;99.90;;;;;;6186393;23;20020;-76
2023/02/04 09:12:55;;;;;;;10.45;3.25;;;6.30;99.90;;;;;;6184392;23;20009;-72
2023/02/04 09:15:23;;;;;;;8.02;2.55;;;6.40;99.90;;;;;;6184415;23;20056;-72
2023/02/04 09:17:49;;;;;;;12.93;3.15;;;6.40;99.90;;;;;;6184385;23;20024;-72
2023/02/04 09:20:15;;;;;;;9.85;2.65;;;6.50;99.90;;;;;;6184418;23;20024;-72
2023/02/04 09:22:40;;;;;;;10.77;2.38;;;6.40;99.90;;;;;;6184352;23;20017;-72
2023/02/04 09:25:07;;;;;;;12.05;2.83;;;6.50;99.90;;;;;;6186436;23;20017;-71
2023/02/04 09:27:32;;;;;;;11.52;2.70;;;6.50;99.90;;;;;;6184199;23;20021;-72
2023/02/04 09:29:58;;;;;;;14.50;2.83;;;6.60;99.90;;;;;;6184526;23;20346;-72
2023/02/04 09:32:23;;;;;;;8.02;2.92;;;6.60;99.90;;;;;;6184391;23;20346;-72
2023/02/04 09:34:49;;;;;;;9.65;2.25;;;6.60;99.90;;;;;;6184411;23;20021;-72
2023/02/04 09:37:15;;;;;;;5.30;1.80;;;6.60;99.90;;;;;;6186852;23;20013;-72
2023/02/04 09:39:40;;;;;;;11.60;3.17;;;6.60;99.90;;;;;;6187995;23;20331;-72
2023/02/04 09:42:08;;;;;;;12.07;3.13;;;6.70;99.90;;;;;;6186205;23;20465;-72
2023/02/04 09:44:33;;;;;;;7.38;2.20;;;6.70;99.90;;;;;;6187877;23;20080;-72
2023/02/04 09:47:00;;;;;;;10.48;2.72;;;6.80;99.90;;;;;;6187907;23;20051;-73
2023/02/04 09:49:26;;;;;;;9.20;2.28;;;6.80;99.90;;;;;;6187849;23;20013;-72
2023/02/04 09:51:53;;;;;;;9.38;2.58;;;6.90;99.90;;;;;;6185862;23;20069;-72
2023/02/04 09:54:21;;;;;;;8.90;2.20;;;7.00;99.90;;;;;;6185951;23;20017;-72
2023/02/04 09:56:47;;;;;;;10.82;3.03;;;7.00;99.90;;;;;;6187544;23;20017;-72
2023/02/04 09:59:16;;;;;;;9.35;2.72;;;7.00;99.90;;;;;;6186011;23;20021;-72
2023/02/04 10:01:41;;;;;;;7.07;2.45;;;7.10;99.90;;;;;;6185815;23;20084;-72
2023/02/04 10:04:11;;;;;;;9.93;2.92;;;7.10;99.90;;;;;;6185973;23;20044;-72
2023/02/04 10:06:38;;;;;;;5.78;1.88;;;7.00;99.90;;;;;;6188407;23;20373;-72
2023/02/04 10:09:04;;;;;;;6.38;1.80;;;7.10;99.90;;;;;;6185906;23;20063;-72
2023/02/04 10:11:33;;;;;;;8.45;2.20;;;7.00;99.90;;;;;;6187833;23;20088;-72
2023/02/04 10:13:59;;;;;;;5.80;2.40;;;7.10;99.90;;;;;;6185759;23;20012;-72
2023/02/04 10:16:31;;;;;;;6.53;2.70;;;7.10;99.90;;;;;;6188331;23;20311;-72
2023/02/04 10:19:03;;;;;;;10.30;3.40;;;7.20;99.90;;;;;;6187740;23;20016;-72
2023/02/04 10:21:35;;;;;;;9.05;3.40;;;7.20;99.90;;;;;;6187111;23;20013;-72
2023/02/04 10:24:05;;;;;;;8.07;2.53;;;7.20;99.90;;;;;;6187562;23;20068;-72
2023/02/04 10:26:31;;;;;;;7.95;3.00;;;7.20;99.90;;;;;;6187416;23;20041;-71
2023/02/04 10:29:06;;;;;;;8.65;3.15;;;7.20;99.90;;;;;;6187540;23;20024;-72
2023/02/04 10:31:34;;;;;;;6.43;2.17;;;7.30;99.90;;;;;;6187500;23;20020;-72
2023/02/04 10:34:11;;;;;;;8.65;2.88;;;7.20;99.90;;;;;;6187045;23;20084;-72
2023/02/04 10:36:37;;;;;;;7.90;2.63;;;7.30;99.90;;;;;;6187441;23;20027;-72
2023/02/04 10:39:25;;;;;;;10.43;3.08;;;7.40;99.90;;;;;;6187372;23;20009;-72
2023/02/04 10:41:56;;;;;;;8.20;2.40;;;7.50;99.90;;;;;;6184577;23;20017;-72
2023/02/04 10:44:30;;;;;;;10.82;3.03;;;7.50;99.90;;;;;;6187436;23;20017;-72
2023/02/04 10:47:07;;;;;;;8.80;3.03;;;7.50;99.90;;;;;;6186890;23;20443;-72
2023/02/04 10:49:33;;;;;;;7.00;2.55;;;7.50;99.90;;;;;;6187860;23;20044;-72
2023/02/04 10:52:01;;;;;;;10.15;3.17;;;7.50;99.90;;;;;;6185559;23;20024;-72
2023/02/04 10:54:37;;;;;;;7.68;2.53;;;7.50;99.90;;;;;;6185407;23;20445;-72
2023/02/04 10:57:05;;;;;;;7.32;2.78;;;7.50;99.90;;;;;;6160777;23;20017;-72
2023/02/04 10:59:31;;;;;;;6.78;2.80;;;7.50;99.90;;;;;;6185387;23;20023;-72
2023/02/04 11:01:59;;;;;;;8.38;2.97;;;7.60;99.90;;;;;;6186532;23;20083;-72
2023/02/04 11:04:27;;;;;;;7.35;3.40;;;7.60;99.90;;;;;;6185351;23;20044;-72
2023/02/04 11:06:54;;;;;;;6.13;2.42;;;7.60;99.90;;;;;;6160434;23;20009;-72
2023/02/04 11:09:20;;;;;;;8.82;2.78;;;7.60;99.90;;;;;;6185281;23;20128;-72
2023/02/04 11:11:48;;;;;;;5.70;2.25;;;7.70;99.90;;;;;;6187173;23;20024;-72
2023/02/04 11:14:27;;;;;;;9.07;4.78;;;7.60;99.90;;;;;;6185226;23;20347;-72
2023/02/04 11:16:53;;;;;;;7.90;3.88;;;7.50;99.90;;;;;;6187049;23;20017;-72
2023/02/04 11:19:32;;;;;;;9.00;4.30;;;7.50;99.90;;;;;;6185114;23;20025;-72
2023/02/04 11:22:22;;;;;;;8.90;3.83;;;7.50;99.90;;;;;;6185035;23;20009;-72
2023/02/04 11:24:51;;;;;;;6.72;3.08;;;7.70;99.90;;;;;;6185285;23;20057;-72
2023/02/04 11:27:36;;;;;;;7.40;3.10;;;7.80;99.90;;;;;;6184887;23;20091;-72
2023/02/04 11:30:21;;;;;;;7.80;3.42;;;7.90;99.90;;;;;;6185215;23;20328;-72
2023/02/04 11:33:01;;;;;;;8.35;3.50;;;8.10;99.90;;;;;;6185055;23;20013;-72
2023/02/04 11:35:29;;;;;;;10.52;7.82;;;8.10;99.90;;;;;;6186498;23;20017;-72
2023/02/04 11:37:55;;;;;;;11.77;4.55;;;8.20;99.90;;;;;;6184934;23;20080;-72
2023/02/04 11:40:35;;;;;;;7.15;2.92;;;8.30;99.90;;;;;;6185058;23;20013;-72
2023/02/04 11:43:02;;;;;;;7.88;3.40;;;8.40;99.90;;;;;;6184875;23;20021;-72
2023/02/04 11:45:33;;;;;;;5.45;2.65;;;8.40;99.90;;;;;;6186770;23;20009;-72
2023/02/04 11:48:02;;;;;;;8.30;2.60;;;8.50;99.90;;;;;;6186781;23;20009;-72
2023/02/04 11:50:33;;;;;;;7.32;2.80;;;8.40;99.90;;;;;;6184928;23;20017;-72
2023/02/04 11:53:03;;;;;;;8.75;2.95;;;8.50;99.90;;;;;;6184967;23;20016;-72
2023/02/04 11:55:36;;;;;;;9.10;3.25;;;8.40;99.90;;;;;;6184935;23;20021;-72
2023/02/04 11:58:02;;;;;;;5.00;2.70;;;8.50;99.90;;;;;;6184846;23;20043;-72
2023/02/04 12:00:32;;;;;;;6.78;2.75;;;8.60;99.90;;;;;;6186264;23;20020;-72
2023/02/04 12:02:59;;;;;;;;;;;8.70;99.90;;;;;;6185214;23;20029;-72
2023/02/04 12:05:42;;;;;;;7.07;3.47;;;8.70;99.90;;;;;;6186390;23;19999;-72
2023/02/04 12:08:32;;;;;;;5.60;3.20;;;8.60;99.90;;;;;;6186397;23;20081;-72
2023/02/04 12:11:00;;;;;;;4.70;2.50;;;8.70;99.90;;;;;;6186123;23;20017;-72
2023/02/04 12:13:27;;;;;;;8.32;3.90;;;8.70;99.90;;;;;;6184914;23;20055;-72
2023/02/04 12:16:00;;;;;;;5.13;3.20;;;8.80;99.90;;;;;;6186915;23;20013;-72
2023/02/04 12:18:26;;;;;;;7.63;2.83;;;8.80;99.90;;;;;;6184942;23;20021;-72
2023/02/04 12:20:53;;;;;;;9.15;4.40;;;8.80;99.90;;;;;;6186649;23;20095;-72
2023/02/04 12:23:19;;;;;;;5.20;3.05;;;8.80;99.90;;;;;;6184734;23;20016;-72
2023/02/04 12:25:44;;;;;;;6.25;3.50;;;8.90;99.90;;;;;;6186763;23;20028;-72
2023/02/04 12:28:10;;;;;;;6.10;2.60;;;8.80;99.90;;;;;;6185966;23;20320;-72
2023/02/04 12:30:36;;;;;;;5.45;2.63;;;8.80;99.90;;;;;;6186479;23;20071;-72
2023/02/04 12:33:01;;;;;;;6.35;2.88;;;9.00;99.90;;;;;;6186525;23;20016;-72
2023/02/04 12:35:27;;;;;;;4.50;2.63;;;9.10;99.90;;;;;;6186465;23;20055;-72
2023/02/04 12:37:52;;;;;;;6.57;2.63;;;9.30;99.90;;;;;;6186503;23;20063;-72
2023/02/04 12:40:20;;;;;;;7.65;3.50;;;9.40;99.90;;;;;;6186443;23;20454;-72
2023/02/04 12:42:46;;;;;;;6.25;3.40;;;9.40;99.90;;;;;;6184579;23;20069;-72
2023/02/04 12:45:14;;;;;;;5.63;3.42;;;9.40;99.90;;;;;;6186214;23;20009;-72
2023/02/04 12:47:40;;;;;;;4.15;2.50;;;9.50;99.90;;;;;;6184608;23;20499;-72
2023/02/04 12:50:07;;;;;;;4.20;2.63;;;9.60;99.90;;;;;;6186049;23;20464;-72